createdAt,value
2018-04-28T00:00:55.009Z,13.70
2018-04-28T00:03:23.113Z,13.70
2018-04-28T00:05:51.451Z,13.70
2018-04-28T00:08:23.604Z,13.70
2018-04-28T00:10:52.479Z,13.70
2018-04-28T00:13:21.567Z,13.70
2018-04-28T00:15:49.762Z,13.70
2018-04-28T00:18:20.086Z,13.70
2018-04-28T00:20:49.686Z,13.60
2018-04-28T00:23:18.604Z,13.60
2018-04-28T00:25:50.931Z,13.60
2018-04-28T00:28:27.398Z,13.60
2018-04-28T00:30:57.314Z,13.60
2018-04-28T00:33:25.447Z,13.60
2018-04-28T00:36:05.389Z,13.60
2018-04-28T00:38:33.691Z,13.60
2018-04-28T00:41:01.934Z,13.60
2018-04-28T00:43:31.984Z,13.60
2018-04-28T00:46:05.999Z,13.60
2018-04-28T00:48:44.041Z,13.70
2018-04-28T00:51:14.862Z,13.60
2018-04-28T00:53:42.903Z,13.60
2018-04-28T00:56:26.891Z,13.70
2018-04-28T00:58:57.696Z,13.60
2018-04-28T01:01:31.841Z,13.60
2018-04-28T01:04:20.842Z,13.60
2018-04-28T01:06:49.005Z,13.60
2018-04-28T01:09:17.955Z,13.50
2018-04-28T01:11:46.090Z,13.50
2018-04-28T01:14:15.226Z,13.50
2018-04-28T01:16:54.509Z,13.50
2018-04-28T01:22:29.184Z,13.50
2018-04-28T01:24:59.072Z,13.60
2018-04-28T01:27:34.529Z,13.60
2018-04-28T01:30:23.004Z,13.60
2018-04-28T01:32:57.110Z,13.60
2018-04-28T01:35:26.179Z,13.50
2018-04-28T01:40:53.925Z,13.40
2018-04-28T01:43:26.566Z,13.40
2018-04-28T01:46:10.511Z,13.40
2018-04-28T01:49:00.141Z,13.40
2018-04-28T01:51:29.938Z,13.40
2018-04-28T01:57:13.192Z,13.40
2018-04-28T02:03:24.847Z,13.40
2018-04-28T02:06:11.462Z,13.30
2018-04-28T02:08:39.695Z,13.30
2018-04-28T02:11:14.322Z,13.30
2018-04-28T02:13:45.143Z,13.30
2018-04-28T02:16:37.360Z,13.30
2018-04-28T02:19:07.189Z,13.20
2018-04-28T02:21:55.233Z,13.20
2018-04-28T02:24:44.742Z,13.10
2018-04-28T02:27:15.621Z,13.10
2018-04-28T02:30:13.596Z,13.10
2018-04-28T02:32:47.558Z,13.10
2018-04-28T02:35:20.322Z,13.10
2018-04-28T02:37:50.835Z,13.00
2018-04-28T02:40:19.867Z,13.00
2018-04-28T02:42:59.086Z,13.00
2018-04-28T02:45:31.817Z,13.00
2018-04-28T02:48:11.623Z,13.00
2018-04-28T02:50:42.026Z,12.90
2018-04-28T02:53:12.851Z,12.90
2018-04-28T02:55:48.734Z,12.90
2018-04-28T02:58:30.736Z,12.90
2018-04-28T03:01:03.574Z,12.90
2018-04-28T03:03:46.190Z,13.00
2018-04-28T03:06:20.231Z,13.00
2018-04-28T03:08:50.037Z,13.00
2018-04-28T03:11:20.660Z,13.00
2018-04-28T03:13:50.477Z,13.10
2018-04-28T03:16:30.875Z,13.10
2018-04-28T03:19:12.866Z,13.10
2018-04-28T03:21:41.952Z,13.10
2018-04-28T03:24:26.902Z,13.10
2018-04-28T03:27:25.640Z,13.10
2018-04-28T03:29:58.434Z,13.10
2018-04-28T03:32:42.141Z,13.10
2018-04-28T03:35:21.985Z,13.10
2018-04-28T03:37:56.863Z,13.10
2018-04-28T03:40:25.803Z,13.10
2018-04-28T03:42:58.849Z,13.10
2018-04-28T03:45:29.929Z,13.10
2018-04-28T03:48:29.473Z,13.10
2018-04-28T03:53:54.925Z,13.00
2018-04-28T03:56:23.030Z,13.10
2018-04-28T03:59:03.939Z,13.10
2018-04-28T04:01:44.063Z,13.10
2018-04-28T04:04:19.064Z,13.10
2018-04-28T04:06:53.873Z,13.10
2018-04-28T04:09:26.467Z,13.10
2018-04-28T04:12:06.555Z,13.10
2018-04-28T04:14:58.273Z,13.10
2018-04-28T04:17:36.024Z,13.00
2018-04-28T04:20:28.766Z,13.00
2018-04-28T04:23:14.292Z,13.00
2018-04-28T04:25:51.936Z,13.00
2018-04-28T04:28:20.053Z,13.00
2018-04-28T04:30:58.097Z,13.10
2018-04-28T04:33:29.493Z,13.10
2018-04-28T04:36:12.514Z,13.00
2018-04-28T04:38:40.614Z,13.00
2018-04-28T04:41:30.187Z,13.00
2018-04-28T04:47:18.347Z,13.10
2018-04-28T04:49:59.342Z,13.00
2018-04-28T04:52:33.914Z,13.00
2018-04-28T04:55:12.945Z,13.00
2018-04-28T04:57:46.858Z,13.10
2018-04-28T05:00:34.703Z,13.10
2018-04-28T05:03:14.739Z,13.10
2018-04-28T05:06:04.483Z,13.20
2018-04-28T05:08:36.816Z,13.10
2018-04-28T05:11:23.825Z,13.10
2018-04-28T05:14:00.585Z,13.10
2018-04-28T05:16:37.377Z,13.10
2018-04-28T05:25:39.704Z,13.30
2018-04-28T05:28:17.315Z,13.30
2018-04-28T05:30:46.852Z,13.40
2018-04-28T05:33:27.492Z,13.50
2018-04-28T05:36:07.473Z,13.50
2018-04-28T05:38:57.235Z,13.50
2018-04-28T05:44:17.862Z,13.70
2018-04-28T05:46:57.980Z,13.70
2018-04-28T05:49:31.853Z,13.80
2018-04-28T05:52:12.062Z,13.90
2018-04-28T05:57:47.916Z,13.90
2018-04-28T06:00:24.989Z,13.90
2018-04-28T06:02:59.886Z,13.90
2018-04-28T06:05:52.997Z,14.00
2018-04-28T06:08:44.877Z,14.00
2018-04-28T06:11:25.255Z,14.10
2018-04-28T06:14:21.215Z,14.20
2018-04-28T06:17:01.608Z,14.30
2018-04-28T06:20:04.161Z,14.40
2018-04-28T06:22:32.205Z,14.50
2018-04-28T06:25:01.078Z,14.60
2018-04-28T06:27:29.205Z,14.70
2018-04-28T06:29:57.301Z,14.70
2018-04-28T06:32:26.190Z,14.70
2018-04-28T06:34:54.463Z,14.70
2018-04-28T06:37:22.578Z,14.60
2018-04-28T06:39:51.562Z,14.70
2018-04-28T06:42:20.438Z,14.60
2018-04-28T06:44:48.544Z,14.60
2018-04-28T06:47:17.648Z,14.50
2018-04-28T06:49:46.023Z,14.50
2018-04-28T06:52:15.805Z,14.40
2018-04-28T06:54:43.921Z,14.40
2018-04-28T06:57:12.046Z,14.40
2018-04-28T06:59:40.489Z,14.40
2018-04-28T07:02:09.097Z,14.40
2018-04-28T07:04:37.230Z,14.40
2018-04-28T07:07:07.607Z,14.50
2018-04-28T07:09:37.325Z,14.60
2018-04-28T07:12:06.957Z,14.60
2018-04-28T07:14:35.907Z,14.70
2018-04-28T07:17:04.007Z,14.70
2018-04-28T07:19:32.096Z,14.90
2018-04-28T07:22:00.964Z,15.10
2018-04-28T07:24:30.577Z,15.30
2018-04-28T07:26:59.441Z,15.30
2018-04-28T07:29:27.557Z,15.40
2018-04-28T07:31:56.057Z,15.40
2018-04-28T07:34:24.159Z,15.50
2018-04-28T07:36:52.566Z,15.50
2018-04-28T07:39:21.504Z,15.20
2018-04-28T07:41:51.340Z,15.20
2018-04-28T07:44:19.567Z,15.10
2018-04-28T07:46:48.440Z,15.00
2018-04-28T07:49:17.136Z,14.90
2018-04-28T07:51:46.016Z,14.90
2018-04-28T07:54:15.638Z,14.90
2018-04-28T07:56:44.541Z,15.00
2018-04-28T07:59:13.521Z,15.20
2018-04-28T08:01:42.396Z,15.50
2018-04-28T08:04:10.536Z,15.50
2018-04-28T08:06:38.744Z,15.60
2018-04-28T08:09:07.639Z,15.80
2018-04-28T08:11:35.747Z,15.80
2018-04-28T08:14:03.840Z,15.90
2018-04-28T08:16:32.082Z,16.00
2018-04-28T08:19:01.049Z,16.00
2018-04-28T08:21:29.152Z,16.00
2018-04-28T08:23:57.284Z,15.90
2018-04-28T08:26:25.590Z,15.80
2018-04-28T08:28:53.666Z,15.80
2018-04-28T08:31:21.782Z,15.80
2018-04-28T08:33:49.895Z,15.60
2018-04-28T08:36:18.804Z,14.90
2018-04-28T08:38:47.747Z,14.50
2018-04-28T08:41:16.913Z,14.50
2018-04-28T08:43:46.107Z,14.20
2018-04-28T08:46:14.847Z,13.90
2018-04-28T08:48:44.367Z,13.50
2018-04-28T08:51:13.523Z,13.40
2018-04-28T08:53:41.992Z,13.40
2018-04-28T08:56:11.652Z,13.40
2018-04-28T08:58:40.709Z,13.60
2018-04-28T09:01:10.748Z,13.90
2018-04-28T09:03:39.668Z,14.60
2018-04-28T09:06:08.534Z,15.10
2018-04-28T09:08:37.483Z,15.10
2018-04-28T09:11:05.625Z,15.50
2018-04-28T09:13:34.636Z,16.30
2018-04-28T09:16:02.790Z,16.30
2018-04-28T09:18:31.668Z,16.90
2018-04-28T09:21:01.271Z,17.20
2018-04-28T09:23:31.328Z,17.20
2018-04-28T09:25:59.686Z,17.30
2018-04-28T09:28:28.402Z,17.40
2018-04-28T09:30:57.762Z,17.40
2018-04-28T09:33:26.858Z,17.20
2018-04-28T09:35:55.733Z,16.90
2018-04-28T09:38:25.357Z,16.80
2018-04-28T09:40:54.256Z,16.80
2018-04-28T09:43:23.124Z,16.50
2018-04-28T09:45:51.310Z,16.50
2018-04-28T09:48:20.225Z,16.20
2018-04-28T09:50:48.340Z,16.20
2018-04-28T09:53:16.434Z,16.00
2018-04-28T09:55:44.666Z,15.80
2018-04-28T09:58:12.814Z,15.60
2018-04-28T10:00:56.722Z,15.40
2018-04-28T10:03:30.708Z,15.40
2018-04-28T10:05:58.996Z,15.40
2018-04-28T10:08:27.085Z,15.40
2018-04-28T10:10:55.196Z,15.30
2018-04-28T10:13:23.317Z,15.30
2018-04-28T10:15:51.897Z,15.40
2018-04-28T10:18:20.012Z,15.50
2018-04-28T10:20:48.962Z,15.60
2018-04-28T10:23:17.145Z,15.60
2018-04-28T10:25:45.488Z,15.50
2018-04-28T10:28:14.136Z,15.40
2018-04-28T10:30:43.027Z,15.60
2018-04-28T10:33:11.935Z,15.70
2018-04-28T10:35:40.109Z,15.70
2018-04-28T10:38:08.210Z,16.00
2018-04-28T10:40:36.336Z,16.30
2018-04-28T10:43:05.222Z,17.30
2018-04-28T10:45:34.088Z,17.60
2018-04-28T10:48:02.193Z,17.50
2018-04-28T10:50:31.189Z,17.50
2018-04-28T10:53:00.137Z,17.50
2018-04-28T10:55:28.279Z,17.40
2018-04-28T10:57:56.401Z,17.40
2018-04-28T11:00:24.498Z,17.00
2018-04-28T11:02:53.473Z,16.70
2018-04-28T11:05:22.374Z,16.80
2018-04-28T11:07:51.239Z,16.90
2018-04-28T11:10:20.121Z,16.90
2018-04-28T11:12:49.038Z,16.80
2018-04-28T11:15:18.004Z,16.80
2018-04-28T11:17:46.098Z,16.80
2018-04-28T11:20:15.234Z,17.00
2018-04-28T11:22:43.387Z,17.00
2018-04-28T11:25:12.239Z,16.80
2018-04-28T11:27:40.965Z,16.80
2018-04-28T11:30:09.076Z,16.80
2018-04-28T11:32:37.385Z,16.80
2018-04-28T11:35:05.536Z,16.90
2018-04-28T11:37:33.648Z,17.10
2018-04-28T11:40:02.553Z,18.00
2018-04-28T11:42:31.524Z,18.20
2018-04-28T11:45:00.521Z,18.10
2018-04-28T11:47:30.206Z,18.00
2018-04-28T11:49:59.889Z,17.80
2018-04-28T11:52:27.990Z,17.80
2018-04-28T11:54:56.858Z,17.40
2018-04-28T11:57:24.999Z,17.40
2018-04-28T11:59:53.114Z,17.50
2018-04-28T12:02:21.230Z,17.60
2018-04-28T12:04:50.124Z,17.80
2018-04-28T12:07:18.988Z,18.00
2018-04-28T12:09:47.089Z,18.00
2018-04-28T12:12:16.166Z,17.80
2018-04-28T12:14:45.757Z,17.70
2018-04-28T12:17:13.851Z,17.70
2018-04-28T12:19:43.787Z,17.60
2018-04-28T12:22:13.825Z,17.60
2018-04-28T12:24:42.058Z,17.80
2018-04-28T12:27:11.059Z,18.20
2018-04-28T12:29:40.004Z,18.70
2018-04-28T12:32:08.105Z,18.70
2018-04-28T12:34:36.297Z,19.00
2018-04-28T12:37:05.170Z,19.80
2018-04-28T12:39:33.280Z,19.80
2018-04-28T12:42:01.404Z,20.00
2018-04-28T12:44:29.482Z,20.30
2018-04-28T12:46:59.099Z,20.80
2018-04-28T12:49:27.970Z,20.40
2018-04-28T12:51:56.091Z,20.40
2018-04-28T12:54:26.274Z,20.30
2018-04-28T12:56:54.381Z,20.30
2018-04-28T12:59:22.634Z,20.20
2018-04-28T13:01:50.780Z,19.90
2018-04-28T13:04:19.145Z,19.80
2018-04-28T13:06:48.078Z,20.20
2018-04-28T13:09:17.147Z,20.30
2018-04-28T13:11:45.358Z,20.30
2018-04-28T13:14:13.445Z,20.40
2018-04-28T13:16:42.324Z,20.60
2018-04-28T13:19:11.183Z,20.50
2018-04-28T13:21:39.859Z,20.50
2018-04-28T13:24:08.058Z,20.40
2018-04-28T13:26:36.948Z,20.60
2018-04-28T13:29:05.919Z,20.40
2018-04-28T13:31:34.741Z,20.20
2018-04-28T13:34:03.619Z,20.30
2018-04-28T13:36:31.839Z,20.30
2018-04-28T13:39:00.577Z,20.90
2018-04-28T13:41:28.688Z,21.30
2018-04-28T13:43:56.813Z,21.20
2018-04-28T13:46:25.111Z,21.10
2018-04-28T13:48:53.222Z,20.90
2018-04-28T13:51:21.338Z,20.70
2018-04-28T13:53:50.988Z,20.60
2018-04-28T13:56:19.209Z,20.60
2018-04-28T13:58:47.337Z,20.50
2018-04-28T14:01:15.470Z,20.50
2018-04-28T14:03:43.580Z,20.60
2018-04-28T14:06:11.680Z,20.50
2018-04-28T14:08:39.833Z,20.30
2018-04-28T14:11:07.930Z,20.20
2018-04-28T14:13:36.112Z,20.00
2018-04-28T14:16:04.239Z,20.00
2018-04-28T14:18:32.389Z,20.20
2018-04-28T14:21:01.265Z,20.30
2018-04-28T14:23:29.383Z,20.30
2018-04-28T14:25:57.484Z,20.20
2018-04-28T14:28:25.581Z,20.10
2018-04-28T14:30:53.691Z,20.00
2018-04-28T14:33:21.816Z,19.80
2018-04-28T14:35:49.901Z,19.60
2018-04-28T14:38:18.022Z,19.60
2018-04-28T14:40:46.149Z,19.50
2018-04-28T14:43:15.044Z,19.20
2018-04-28T14:45:44.161Z,19.10
2018-04-28T14:48:12.312Z,19.00
2018-04-28T14:50:40.561Z,19.00
2018-04-28T14:53:08.683Z,19.00
2018-04-28T14:55:36.780Z,18.90
2018-04-28T14:58:04.887Z,18.90
2018-04-28T15:00:33.057Z,18.90
2018-04-28T15:03:01.150Z,18.80
2018-04-28T15:05:30.165Z,19.00
2018-04-28T15:07:59.344Z,19.20
2018-04-28T15:10:27.472Z,19.20
2018-04-28T15:12:55.613Z,19.40
2018-04-28T15:15:23.732Z,19.40
2018-04-28T15:17:51.852Z,19.10
2018-04-28T15:20:20.725Z,18.70
2018-04-28T15:22:48.834Z,18.70
2018-04-28T15:25:16.957Z,18.60
2018-04-28T15:27:45.206Z,18.50
2018-04-28T15:30:13.966Z,18.50
2018-04-28T15:32:42.104Z,18.40
2018-04-28T15:35:10.196Z,18.40
2018-04-28T15:37:39.493Z,18.40
2018-04-28T15:40:07.579Z,18.40
2018-04-28T15:42:35.719Z,18.50
2018-04-28T15:45:03.888Z,18.50
2018-04-28T15:47:31.988Z,18.50
2018-04-28T15:50:00.969Z,18.40
2018-04-28T15:52:29.733Z,18.40
2018-04-28T15:54:57.863Z,18.40
2018-04-28T15:57:27.094Z,18.40
2018-04-28T15:59:55.251Z,18.40
2018-04-28T16:02:23.371Z,18.30
2018-04-28T16:04:51.480Z,18.20
2018-04-28T16:07:19.603Z,18.10
2018-04-28T16:09:47.714Z,18.00
2018-04-28T16:12:15.896Z,18.00
2018-04-28T16:14:44.056Z,18.10
2018-04-28T16:17:13.409Z,18.30
2018-04-28T16:19:41.505Z,18.30
2018-04-28T16:22:09.618Z,18.50
2018-04-28T16:24:37.908Z,18.80
2018-04-28T16:27:06.006Z,18.80
2018-04-28T16:29:34.131Z,19.10
2018-04-28T16:32:02.362Z,19.20
2018-04-28T16:34:30.483Z,19.30
2018-04-28T16:36:58.611Z,19.30
2018-04-28T16:39:26.867Z,19.10
2018-04-28T16:41:55.038Z,18.80
2018-04-28T16:44:23.311Z,18.60
2018-04-28T16:46:51.535Z,18.50
2018-04-28T16:49:20.438Z,18.20
2018-04-28T16:51:49.328Z,18.10
2018-04-28T16:54:18.186Z,18.00
2018-04-28T16:56:46.289Z,18.00
2018-04-28T16:59:15.166Z,17.80
2018-04-28T17:01:43.273Z,17.80
2018-04-28T17:04:11.361Z,17.70
2018-04-28T17:06:39.533Z,17.70
2018-04-28T17:09:07.608Z,17.50
2018-04-28T17:11:35.722Z,17.40
2018-04-28T17:14:03.820Z,17.30
2018-04-28T17:16:32.073Z,17.30
2018-04-28T17:19:00.974Z,17.30
2018-04-28T17:21:29.837Z,17.20
2018-04-28T17:23:58.107Z,17.20
2018-04-28T17:26:26.216Z,17.10
2018-04-28T17:28:55.215Z,17.00
2018-04-28T17:31:23.977Z,16.90
2018-04-28T17:33:52.923Z,17.00
2018-04-28T17:36:21.032Z,16.90
2018-04-28T17:38:49.161Z,17.00
2018-04-28T17:41:17.443Z,17.00
2018-04-28T17:43:45.741Z,17.00
2018-04-28T17:46:14.342Z,17.10
2018-04-28T17:48:42.432Z,17.10
2018-04-28T17:51:11.375Z,17.20
2018-04-28T17:53:39.477Z,17.10
2018-04-28T17:56:07.669Z,17.20
2018-04-28T17:58:36.545Z,17.00
2018-04-28T18:01:04.643Z,16.90
2018-04-28T18:03:34.300Z,16.60
2018-04-28T18:06:02.425Z,16.50
2018-04-28T18:08:31.287Z,16.30
2018-04-28T18:10:59.385Z,16.30
2018-04-28T18:13:28.277Z,16.10
2018-04-28T18:15:57.158Z,16.10
2018-04-28T18:18:25.245Z,16.00
2018-04-28T18:20:53.366Z,16.00
2018-04-28T18:23:21.651Z,16.00
2018-04-28T18:25:49.870Z,15.90
2018-04-28T18:28:17.933Z,15.90
2018-04-28T18:30:46.806Z,15.70
2018-04-28T18:33:14.926Z,15.60
2018-04-28T18:35:43.036Z,15.50
2018-04-28T18:38:11.131Z,15.50
2018-04-28T18:40:39.330Z,15.40
2018-04-28T18:43:07.389Z,15.30
2018-04-28T18:45:35.498Z,15.20
2018-04-28T18:48:04.195Z,15.10
2018-04-28T18:50:32.486Z,15.10
2018-04-28T18:53:01.416Z,15.00
2018-04-28T18:55:30.512Z,14.90
2018-04-28T18:57:58.643Z,14.90
2018-04-28T19:00:26.819Z,14.90
2018-04-28T19:02:54.909Z,14.90
2018-04-28T19:05:23.026Z,15.00
2018-04-28T19:07:51.136Z,14.90
2018-04-28T19:10:19.755Z,14.90
2018-04-28T19:12:47.862Z,14.90
2018-04-28T19:15:16.784Z,14.90
2018-04-28T19:17:46.430Z,14.80
2018-04-28T19:20:15.311Z,14.80
2018-04-28T19:22:43.444Z,14.70
2018-04-28T19:25:12.141Z,14.70
2018-04-28T19:27:40.248Z,14.70
2018-04-28T19:30:08.555Z,14.60
2018-04-28T19:32:36.657Z,14.60
2018-04-28T19:35:04.819Z,14.50
2018-04-28T19:37:34.197Z,14.40
2018-04-28T19:40:02.301Z,14.40
2018-04-28T19:42:30.423Z,14.30
2018-04-28T19:44:58.530Z,14.20
2018-04-28T19:47:26.950Z,14.10
2018-04-28T19:49:55.248Z,14.00
2018-04-28T19:52:24.202Z,13.90
2018-04-28T19:54:52.418Z,13.90
2018-04-28T19:57:21.418Z,13.80
2018-04-28T19:59:50.287Z,13.70
2018-04-28T20:02:18.399Z,13.70
2018-04-28T20:04:46.641Z,13.80
2018-04-28T20:07:14.948Z,13.70
2018-04-28T20:09:43.227Z,13.70
2018-04-28T20:12:11.406Z,13.60
2018-04-28T20:14:39.572Z,13.50
2018-04-28T20:17:07.687Z,13.40
2018-04-28T20:19:35.809Z,13.30
2018-04-28T20:22:16.647Z,13.10
2018-04-28T20:24:56.568Z,13.10
2018-04-28T20:27:24.913Z,13.00
2018-04-28T20:29:53.072Z,12.80
2018-04-28T20:32:21.940Z,12.70
2018-04-28T20:34:50.917Z,12.60
2018-04-28T20:37:19.189Z,12.60
2018-04-28T20:39:47.365Z,12.60
2018-04-28T20:42:15.616Z,12.50
2018-04-28T20:44:43.746Z,12.40
2018-04-28T20:47:12.655Z,12.30
2018-04-28T20:49:41.519Z,12.30
2018-04-28T20:52:09.659Z,12.20
2018-04-28T20:54:38.755Z,12.10
2018-04-28T20:57:06.870Z,12.10
2018-04-28T20:59:35.749Z,11.90
2018-04-28T21:02:04.509Z,11.90
2018-04-28T21:04:33.057Z,11.90
2018-04-28T21:07:01.192Z,11.80
2018-04-28T21:09:30.080Z,11.70
2018-04-28T21:11:58.966Z,11.60
2018-04-28T21:14:27.150Z,11.60
2018-04-28T21:16:55.267Z,11.50
2018-04-28T21:19:23.380Z,11.40
2018-04-28T21:21:52.268Z,11.30
2018-04-28T21:24:20.405Z,11.30
2018-04-28T21:26:48.604Z,11.20
2018-04-28T21:29:18.369Z,11.00
2018-04-28T21:31:46.487Z,11.00
2018-04-28T21:34:14.632Z,10.90
2018-04-28T21:36:44.242Z,10.90
2018-04-28T21:39:12.442Z,10.80
2018-04-28T21:41:41.154Z,10.80
2018-04-28T21:44:10.143Z,10.70
2018-04-28T21:46:40.168Z,10.60
2018-04-28T21:49:09.360Z,10.60
2018-04-28T21:51:39.670Z,10.60
2018-04-28T21:54:07.781Z,10.60
2018-04-28T21:56:35.893Z,10.60
2018-04-28T21:59:04.053Z,10.50
2018-04-28T22:01:32.196Z,10.50
2018-04-28T22:04:01.072Z,10.40
2018-04-28T22:06:29.942Z,10.20
2018-04-28T22:08:59.275Z,10.20
2018-04-28T22:11:27.363Z,10.10
2018-04-28T22:13:55.515Z,10.10
2018-04-28T22:16:24.367Z,10.00
2018-04-28T22:18:52.591Z,10.00
2018-04-28T22:21:21.464Z,10.00
2018-04-28T22:23:50.334Z,9.90
2018-04-28T22:26:18.435Z,9.80
2018-04-28T22:28:47.302Z,9.70
2018-04-28T22:31:15.401Z,9.70
2018-04-28T22:33:44.265Z,9.60
2018-04-28T22:36:12.440Z,9.60
2018-04-28T22:38:40.541Z,9.50
2018-04-28T22:41:08.637Z,9.40
2018-04-28T22:43:36.760Z,9.40
2018-04-28T22:46:04.857Z,9.40
2018-04-28T22:48:33.712Z,9.40
2018-04-28T22:51:02.578Z,9.30
2018-04-28T22:53:30.690Z,9.30
2018-04-28T22:55:58.857Z,9.20
2018-04-28T22:58:26.981Z,9.20
2018-04-28T23:00:55.095Z,9.10
2018-04-28T23:03:23.478Z,9.10
2018-04-28T23:05:51.696Z,9.20
2018-04-28T23:08:19.793Z,9.20
2018-04-28T23:10:48.298Z,9.10
2018-04-28T23:13:16.408Z,9.10
2018-04-28T23:15:45.275Z,9.00
2018-04-28T23:18:15.993Z,8.90
2018-04-28T23:20:44.109Z,8.90
2018-04-28T23:23:12.270Z,8.80
2018-04-28T23:25:40.554Z,8.80
2018-04-28T23:28:08.696Z,8.80
2018-04-28T23:30:37.679Z,8.80
2018-04-28T23:33:05.825Z,8.80
2018-04-28T23:35:33.948Z,8.80
2018-04-28T23:38:02.048Z,8.80
2018-04-28T23:40:30.278Z,8.80
2018-04-28T23:43:00.395Z,8.60
2018-04-28T23:45:28.598Z,8.60
2018-04-28T23:47:58.253Z,8.70
2018-04-28T23:50:26.354Z,8.70
2018-04-28T23:52:54.501Z,8.70
2018-04-28T23:55:22.632Z,8.70
2018-04-28T23:57:51.628Z,8.60
